TBD775 ENAN-ENDU
Flight info
| Callsign | TBD775 |
|---|---|
| Flight time | 0h 28m |
| Altitude | 13000 |
| Route | LULAX BDF |
| Aircraft | TBM8/L-SBDFGRWY/G |
Departure
| Time | 2026-04-26 10:02 |
|---|---|
| Airport | Andøya Airport, Andenes (ENAN) |
Arrival
| Time | 2026-04-26 10:31 |
|---|---|
| Airport | Bardufoss Airport (ENDU) |
| Time | Latitude | Longitude | Altitude | Speed | Heading |
|---|---|---|---|---|---|
| 2026-04-26 09:44 | 69.31024 | 16.12457 | 24 ft | 0 kts | 74° |
| 2026-04-26 09:57 | 69.31010 | 16.12524 | 26 ft | 13 kts | 158° |
| 2026-04-26 09:57 | 69.30964 | 16.12720 | 28 ft | 10 kts | 118° |
| 2026-04-26 09:57 | 69.30914 | 16.12945 | 24 ft | 20 kts | 146° |
| 2026-04-26 09:57 | 69.30785 | 16.12925 | 26 ft | 19 kts | 213° |
| 2026-04-26 09:58 | 69.30664 | 16.12721 | 27 ft | 22 kts | 205° |
| 2026-04-26 09:58 | 69.30495 | 16.12820 | 20 ft | 24 kts | 150° |
| 2026-04-26 09:58 | 69.30379 | 16.13018 | 19 ft | 20 kts | 148° |
| 2026-04-26 09:58 | 69.30258 | 16.13222 | 17 ft | 19 kts | 146° |
| 2026-04-26 09:59 | 69.30148 | 16.13373 | 17 ft | 14 kts | 202° |
| 2026-04-26 09:59 | 69.30068 | 16.13067 | 24 ft | 18 kts | 182° |
| 2026-04-26 09:59 | 69.29925 | 16.13291 | 25 ft | 30 kts | 150° |
| 2026-04-26 09:59 | 69.29734 | 16.13611 | 25 ft | 31 kts | 148° |
| 2026-04-26 10:00 | 69.29542 | 16.13912 | 28 ft | 36 kts | 148° |
| 2026-04-26 10:00 | 69.29354 | 16.14219 | 27 ft | 27 kts | 149° |
| 2026-04-26 10:00 | 69.29151 | 16.14566 | 25 ft | 38 kts | 154° |
| 2026-04-26 10:00 | 69.28962 | 16.14871 | 21 ft | 31 kts | 148° |
| 2026-04-26 10:01 | 69.28786 | 16.15111 | 19 ft | 17 kts | 159° |
| 2026-04-26 10:01 | 69.28790 | 16.15152 | 19 ft | 5 kts | 333° |
| 2026-04-26 10:01 | 69.28793 | 16.15145 | 19 ft | 0 kts | 327° |
| 2026-04-26 10:02 | 69.28896 | 16.14975 | 20 ft | 48 kts | 330° |
| 2026-04-26 10:02 | 69.29349 | 16.14233 | 59 ft | 96 kts | 331° |
| 2026-04-26 10:02 | 69.29959 | 16.13247 | 426 ft | 105 kts | 333° |
| 2026-04-26 10:02 | 69.30608 | 16.12194 | 968 ft | 110 kts | 331° |
| 2026-04-26 10:03 | 69.31282 | 16.11129 | 1619 ft | 111 kts | 336° |
| 2026-04-26 10:03 | 69.32057 | 16.10811 | 2212 ft | 121 kts | 7° |
| 2026-04-26 10:03 | 69.32824 | 16.12214 | 2633 ft | 147 kts | 54° |
| 2026-04-26 10:03 | 69.32854 | 16.15027 | 3402 ft | 155 kts | 110° |
| 2026-04-26 10:04 | 69.32137 | 16.17310 | 4069 ft | 155 kts | 126° |
| 2026-04-26 10:04 | 69.31661 | 16.20042 | 4616 ft | 160 kts | 106° |
| 2026-04-26 10:04 | 69.31218 | 16.23000 | 5254 ft | 158 kts | 110° |
| 2026-04-26 10:04 | 69.30759 | 16.25693 | 6067 ft | 151 kts | 115° |
| 2026-04-26 10:05 | 69.30251 | 16.28487 | 6480 ft | 169 kts | 112° |
| 2026-04-26 10:05 | 69.29722 | 16.31536 | 7004 ft | 172 kts | 114° |
| 2026-04-26 10:05 | 69.29283 | 16.34556 | 7702 ft | 163 kts | 105° |
| 2026-04-26 10:05 | 69.28920 | 16.37627 | 8188 ft | 171 kts | 108° |
| 2026-04-26 10:06 | 69.28442 | 16.40767 | 8738 ft | 175 kts | 115° |
| 2026-04-26 10:06 | 69.27880 | 16.43769 | 9425 ft | 170 kts | 116° |
| 2026-04-26 10:06 | 69.27410 | 16.46830 | 10038 ft | 167 kts | 108° |
| 2026-04-26 10:06 | 69.27053 | 16.50026 | 10522 ft | 173 kts | 102° |
| 2026-04-26 10:07 | 69.26741 | 16.53310 | 11084 ft | 170 kts | 102° |
| 2026-04-26 10:07 | 69.26516 | 16.56490 | 11714 ft | 164 kts | 95° |
| 2026-04-26 10:07 | 69.26365 | 16.59782 | 12103 ft | 175 kts | 93° |
| 2026-04-26 10:07 | 69.26185 | 16.63218 | 12659 ft | 175 kts | 98° |
| 2026-04-26 10:08 | 69.25916 | 16.66674 | 12920 ft | 195 kts | 99° |
| 2026-04-26 10:08 | 69.25657 | 16.70659 | 13037 ft | 216 kts | 97° |
| 2026-04-26 10:08 | 69.25389 | 16.75062 | 12979 ft | 238 kts | 99° |
| 2026-04-26 10:08 | 69.25119 | 16.79792 | 12999 ft | 249 kts | 94° |
| 2026-04-26 10:09 | 69.24931 | 16.84747 | 12973 ft | 258 kts | 92° |
| 2026-04-26 10:09 | 69.24774 | 16.89847 | 13017 ft | 262 kts | 92° |
| 2026-04-26 10:09 | 69.24610 | 16.95008 | 13044 ft | 265 kts | 93° |
| 2026-04-26 10:09 | 69.24391 | 17.00247 | 12963 ft | 271 kts | 97° |
| 2026-04-26 10:10 | 69.24023 | 17.05465 | 12938 ft | 274 kts | 100° |
| 2026-04-26 10:10 | 69.23568 | 17.10661 | 12987 ft | 273 kts | 102° |
| 2026-04-26 10:10 | 69.23110 | 17.15876 | 12989 ft | 273 kts | 101° |
| 2026-04-26 10:10 | 69.22728 | 17.21117 | 12918 ft | 275 kts | 97° |
| 2026-04-26 10:11 | 69.22441 | 17.26351 | 12979 ft | 272 kts | 94° |
| 2026-04-26 10:11 | 69.22239 | 17.31651 | 12947 ft | 272 kts | 92° |
| 2026-04-26 10:11 | 69.22049 | 17.36955 | 12940 ft | 273 kts | 92° |
| 2026-04-26 10:11 | 69.21833 | 17.42276 | 12938 ft | 274 kts | 95° |
| 2026-04-26 10:12 | 69.21527 | 17.47552 | 12994 ft | 272 kts | 98° |
| 2026-04-26 10:12 | 69.21182 | 17.52819 | 12908 ft | 275 kts | 97° |
| 2026-04-26 10:12 | 69.20866 | 17.58074 | 12989 ft | 271 kts | 98° |
| 2026-04-26 10:12 | 69.20480 | 17.63299 | 12980 ft | 272 kts | 99° |
| 2026-04-26 10:13 | 69.20079 | 17.68565 | 12895 ft | 277 kts | 99° |
| 2026-04-26 10:13 | 69.19643 | 17.73914 | 12972 ft | 278 kts | 102° |
| 2026-04-26 10:13 | 69.19193 | 17.79209 | 12965 ft | 280 kts | 101° |
| 2026-04-26 10:13 | 69.18811 | 17.84600 | 12901 ft | 283 kts | 97° |
| 2026-04-26 10:14 | 69.18496 | 17.90121 | 12736 ft | 286 kts | 96° |
| 2026-04-26 10:14 | 69.18233 | 17.95672 | 12595 ft | 288 kts | 95° |
| 2026-04-26 10:14 | 69.17974 | 18.01253 | 12462 ft | 288 kts | 95° |
| 2026-04-26 10:14 | 69.17697 | 18.06822 | 12328 ft | 289 kts | 96° |
| 2026-04-26 10:15 | 69.17378 | 18.12400 | 12191 ft | 289 kts | 99° |
| 2026-04-26 10:15 | 69.16908 | 18.17847 | 12151 ft | 287 kts | 103° |
| 2026-04-26 10:15 | 69.16390 | 18.23319 | 11898 ft | 291 kts | 103° |
| 2026-04-26 10:15 | 69.15908 | 18.28863 | 11608 ft | 294 kts | 101° |
| 2026-04-26 10:16 | 69.15541 | 18.34501 | 11348 ft | 293 kts | 97° |
| 2026-04-26 10:16 | 69.15241 | 18.40181 | 10990 ft | 296 kts | 96° |
| 2026-04-26 10:16 | 69.14973 | 18.45886 | 10761 ft | 293 kts | 95° |
| 2026-04-26 10:16 | 69.14651 | 18.51512 | 10464 ft | 295 kts | 100° |
| 2026-04-26 10:17 | 69.14208 | 18.57125 | 10258 ft | 291 kts | 102° |
| 2026-04-26 10:17 | 69.13781 | 18.62634 | 9985 ft | 292 kts | 100° |
| 2026-04-26 10:17 | 69.13438 | 18.68250 | 9660 ft | 292 kts | 97° |
| 2026-04-26 10:17 | 69.13171 | 18.73854 | 9409 ft | 288 kts | 97° |
| 2026-04-26 10:18 | 69.12775 | 18.79352 | 9137 ft | 287 kts | 102° |
| 2026-04-26 10:18 | 69.12273 | 18.84743 | 8894 ft | 286 kts | 104° |
| 2026-04-26 10:18 | 69.11761 | 18.90106 | 8603 ft | 285 kts | 102° |
| 2026-04-26 10:18 | 69.11313 | 18.95538 | 8245 ft | 285 kts | 100° |
| 2026-04-26 10:19 | 69.10977 | 19.01016 | 7841 ft | 287 kts | 97° |
| 2026-04-26 10:19 | 69.10661 | 19.06606 | 7471 ft | 285 kts | 96° |
| 2026-04-26 10:19 | 69.10373 | 19.12021 | 7327 ft | 277 kts | 96° |
| 2026-04-26 10:19 | 69.10186 | 19.15533 | 7119 ft | 272 kts | 97° |
| 2026-04-26 10:20 | 69.09832 | 19.20580 | 7056 ft | 257 kts | 101° |
| 2026-04-26 10:20 | 69.09374 | 19.25348 | 7148 ft | 249 kts | 104° |
| 2026-04-26 10:20 | 69.08935 | 19.30046 | 7096 ft | 248 kts | 99° |
| 2026-04-26 10:20 | 69.08637 | 19.34775 | 7091 ft | 248 kts | 97° |
| 2026-04-26 10:21 | 69.08155 | 19.39398 | 7027 ft | 252 kts | 119° |
| 2026-04-26 10:21 | 69.06962 | 19.42937 | 7091 ft | 250 kts | 140° |
| 2026-04-26 10:21 | 69.05515 | 19.45506 | 7113 ft | 249 kts | 157° |
| 2026-04-26 10:21 | 69.03828 | 19.46627 | 6919 ft | 250 kts | 186° |
| 2026-04-26 10:22 | 69.02373 | 19.44545 | 6882 ft | 236 kts | 226° |
| 2026-04-26 10:22 | 69.01180 | 19.41381 | 6747 ft | 237 kts | 229° |
| 2026-04-26 10:22 | 69.00012 | 19.38293 | 6486 ft | 224 kts | 228° |
| 2026-04-26 10:22 | 68.98882 | 19.35580 | 6514 ft | 203 kts | 231° |
| 2026-04-26 10:23 | 68.98184 | 19.32331 | 6517 ft | 187 kts | 251° |
| 2026-04-26 10:23 | 68.97702 | 19.29065 | 6544 ft | 178 kts | 258° |
| 2026-04-26 10:23 | 68.97580 | 19.25729 | 6477 ft | 170 kts | 279° |
| 2026-04-26 10:23 | 68.97826 | 19.22581 | 6399 ft | 161 kts | 289° |
| 2026-04-26 10:24 | 68.98114 | 19.19677 | 6248 ft | 147 kts | 291° |
| 2026-04-26 10:24 | 68.98409 | 19.17113 | 5940 ft | 130 kts | 294° |
| 2026-04-26 10:24 | 68.98678 | 19.14736 | 5772 ft | 132 kts | 289° |
| 2026-04-26 10:24 | 68.98917 | 19.12202 | 5536 ft | 136 kts | 290° |
| 2026-04-26 10:25 | 68.99210 | 19.09701 | 5298 ft | 134 kts | 292° |
| 2026-04-26 10:25 | 68.99491 | 19.07262 | 5126 ft | 126 kts | 292° |
| 2026-04-26 10:25 | 68.99735 | 19.04949 | 4904 ft | 126 kts | 292° |
| 2026-04-26 10:25 | 68.99995 | 19.02685 | 4703 ft | 119 kts | 292° |
| 2026-04-26 10:26 | 69.00230 | 19.00508 | 4441 ft | 115 kts | 290° |
| 2026-04-26 10:26 | 69.00452 | 18.98325 | 4130 ft | 116 kts | 291° |
| 2026-04-26 10:26 | 69.00727 | 18.96293 | 3939 ft | 110 kts | 296° |
| 2026-04-26 10:26 | 69.00965 | 18.94289 | 3746 ft | 107 kts | 290° |
| 2026-04-26 10:27 | 69.01193 | 18.92250 | 3644 ft | 114 kts | 291° |
| 2026-04-26 10:27 | 69.01473 | 18.90144 | 3484 ft | 119 kts | 292° |
| 2026-04-26 10:27 | 69.01711 | 18.87872 | 3227 ft | 127 kts | 289° |
| 2026-04-26 10:27 | 69.01924 | 18.85434 | 2951 ft | 129 kts | 284° |
| 2026-04-26 10:28 | 69.02142 | 18.83047 | 2746 ft | 126 kts | 290° |
| 2026-04-26 10:28 | 69.02417 | 18.80740 | 2572 ft | 123 kts | 286° |
| 2026-04-26 10:28 | 69.02646 | 18.78431 | 2391 ft | 121 kts | 285° |
| 2026-04-26 10:28 | 69.02870 | 18.76150 | 2155 ft | 125 kts | 288° |
| 2026-04-26 10:29 | 69.03164 | 18.73858 | 2000 ft | 126 kts | 291° |
| 2026-04-26 10:29 | 69.03401 | 18.71448 | 1670 ft | 132 kts | 287° |
| 2026-04-26 10:29 | 69.03678 | 18.69064 | 1517 ft | 121 kts | 294° |
| 2026-04-26 10:29 | 69.04021 | 18.66834 | 1249 ft | 125 kts | 291° |
| 2026-04-26 10:30 | 69.04290 | 18.64639 | 1016 ft | 117 kts | 286° |
| 2026-04-26 10:30 | 69.04532 | 18.62630 | 828 ft | 107 kts | 286° |
| 2026-04-26 10:30 | 69.04754 | 18.60733 | 640 ft | 96 kts | 293° |
| 2026-04-26 10:30 | 69.04960 | 18.59032 | 481 ft | 95 kts | 289° |
| 2026-04-26 10:31 | 69.05179 | 18.57250 | 271 ft | 96 kts | 289° |
| 2026-04-26 10:31 | 69.05375 | 18.55665 | 237 ft | 74 kts | 288° |
| 2026-04-26 10:31 | 69.05490 | 18.54881 | 243 ft | 17 kts | 348° |
| 2026-04-26 10:31 | 69.05576 | 18.54950 | 243 ft | 0 kts | 15° |
| 2026-04-26 10:32 | 69.05592 | 18.54916 | 243 ft | 3 kts | 292° |
| 2026-04-26 10:32 | 69.05614 | 18.54735 | 246 ft | 20 kts | 292° |
| 2026-04-26 10:32 | 69.05664 | 18.54327 | 250 ft | 18 kts | 293° |
| 2026-04-26 10:32 | 69.05703 | 18.54112 | 251 ft | 13 kts | 334° |
| 2026-04-26 10:33 | 69.05774 | 18.54044 | 251 ft | 12 kts | 351° |
| 2026-04-26 10:33 | 69.05828 | 18.54174 | 252 ft | 9 kts | 88° |
| 2026-04-26 10:33 | 69.05821 | 18.54417 | 252 ft | 13 kts | 96° |
| 2026-04-26 10:33 | 69.05808 | 18.54610 | 252 ft | 12 kts | 103° |
| 2026-04-26 10:34 | 69.05812 | 18.54759 | 252 ft | 9 kts | 14° |
| 2026-04-26 10:34 | 69.05830 | 18.54646 | 252 ft | 14 kts | 284° |
| 2026-04-26 10:34 | 69.05848 | 18.54455 | 252 ft | 12 kts | 288° |
| 2026-04-26 10:34 | 69.05839 | 18.54486 | 252 ft | 0 kts | 344° |